Terminal Aerodrome Forecast
Issued by NWS

Home | Current Version | Previous Version | Text Only | Print | Product List | Glossary On
Versions: 1 2 3 4 5 6 7 8 9 10 11 12 13 14 15 16 17 18 19 20
000
FTUS46 KMTR 261728 CCA
TAFSFO
TAF COR
KSFO 261728Z 2618/2724 35008KT P6SM FEW005 SCT200
     FM262200 29016KT P6SM SCT200
     FM270400 29012KT P6SM FEW005 SCT200
     FM271000 28007KT 6SM BR FEW004 SCT007 SCT200
     FM271300 29004KT 6SM HZ FEW004 BKN007
     FM271600 31005KT P6SM FEW005 FEW008 SCT200
     FM272100 30016KT P6SM SCT200=

USA.gov is the U.S. government's official web portal to all federal, state and local government web resources and services.